sensor_id;sensor_type;location;lat;lon;timestamp;P1;durP1;ratioP1;P2;durP2;ratioP2
39324;SDS011;25037;49.488;9.900;2024-03-23T00:54:18;13.48;;;7.22;;
39324;SDS011;25037;49.488;9.900;2024-03-23T00:56:44;13.38;;;7.32;;
39324;SDS011;25037;49.488;9.900;2024-03-23T00:59:10;17.08;;;7.38;;
39324;SDS011;25037;49.488;9.900;2024-03-23T01:01:36;13.90;;;7.40;;
39324;SDS011;25037;49.488;9.900;2024-03-23T01:04:02;12.57;;;7.55;;
39324;SDS011;25037;49.488;9.900;2024-03-23T01:06:28;14.60;;;8.48;;
39324;SDS011;25037;49.488;9.900;2024-03-23T01:08:53;15.85;;;8.07;;
39324;SDS011;25037;49.488;9.900;2024-03-23T01:11:19;13.65;;;8.27;;
39324;SDS011;25037;49.488;9.900;2024-03-23T01:13:45;14.48;;;7.82;;
39324;SDS011;25037;49.488;9.900;2024-03-23T01:16:11;13.73;;;8.07;;
39324;SDS011;25037;49.488;9.900;2024-03-23T01:18:36;13.05;;;7.78;;
39324;SDS011;25037;49.488;9.900;2024-03-23T01:21:03;12.50;;;7.32;;
39324;SDS011;25037;49.488;9.900;2024-03-23T01:23:28;11.13;;;7.07;;
39324;SDS011;25037;49.488;9.900;2024-03-23T01:25:54;13.98;;;7.55;;
39324;SDS011;25037;49.488;9.900;2024-03-23T01:28:21;13.55;;;8.02;;
39324;SDS011;25037;49.488;9.900;2024-03-23T01:30:47;17.88;;;7.35;;
39324;SDS011;25037;49.488;9.900;2024-03-23T01:33:13;14.88;;;7.57;;
39324;SDS011;25037;49.488;9.900;2024-03-23T01:35:39;13.38;;;7.50;;
39324;SDS011;25037;49.488;9.900;2024-03-23T01:38:05;16.92;;;7.20;;
39324;SDS011;25037;49.488;9.900;2024-03-23T01:40:31;15.23;;;7.70;;
39324;SDS011;25037;49.488;9.900;2024-03-23T01:42:58;15.10;;;7.47;;
39324;SDS011;25037;49.488;9.900;2024-03-23T01:45:27;15.63;;;7.65;;
39324;SDS011;25037;49.488;9.900;2024-03-23T01:47:53;13.52;;;7.28;;
39324;SDS011;25037;49.488;9.900;2024-03-23T01:50:19;13.25;;;6.90;;
39324;SDS011;25037;49.488;9.900;2024-03-23T01:52:46;12.27;;;6.40;;
39324;SDS011;25037;49.488;9.900;2024-03-23T01:55:13;14.85;;;7.10;;
39324;SDS011;25037;49.488;9.900;2024-03-23T01:57:39;14.25;;;7.25;;
39324;SDS011;25037;49.488;9.900;2024-03-23T02:00:05;15.05;;;7.20;;
39324;SDS011;25037;49.488;9.900;2024-03-23T02:02:31;13.23;;;6.70;;
39324;SDS011;25037;49.488;9.900;2024-03-23T02:04:57;17.45;;;7.78;;
39324;SDS011;25037;49.488;9.900;2024-03-23T02:07:23;11.55;;;6.60;;
39324;SDS011;25037;49.488;9.900;2024-03-23T02:09:50;15.57;;;7.90;;
39324;SDS011;25037;49.488;9.900;2024-03-23T02:12:17;16.13;;;8.52;;
39324;SDS011;25037;49.488;9.900;2024-03-23T02:14:43;16.33;;;8.27;;
39324;SDS011;25037;49.488;9.900;2024-03-23T02:17:09;13.50;;;7.20;;
39324;SDS011;25037;49.488;9.900;2024-03-23T02:19:35;16.00;;;7.90;;
39324;SDS011;25037;49.488;9.900;2024-03-23T02:22:01;13.95;;;7.50;;
39324;SDS011;25037;49.488;9.900;2024-03-23T02:24:29;11.55;;;6.60;;
39324;SDS011;25037;49.488;9.900;2024-03-23T02:26:55;14.48;;;7.90;;
39324;SDS011;25037;49.488;9.900;2024-03-23T02:29:20;13.98;;;7.85;;
39324;SDS011;25037;49.488;9.900;2024-03-23T02:31:46;14.93;;;7.57;;
39324;SDS011;25037;49.488;9.900;2024-03-23T02:34:12;15.32;;;7.90;;
39324;SDS011;25037;49.488;9.900;2024-03-23T02:36:38;15.90;;;7.95;;
39324;SDS011;25037;49.488;9.900;2024-03-23T02:39:06;14.68;;;8.35;;
39324;SDS011;25037;49.488;9.900;2024-03-23T02:41:34;15.48;;;8.90;;
39324;SDS011;25037;49.488;9.900;2024-03-23T02:44:00;15.45;;;7.78;;
39324;SDS011;25037;49.488;9.900;2024-03-23T02:46:25;16.05;;;8.23;;
39324;SDS011;25037;49.488;9.900;2024-03-23T02:48:51;14.30;;;7.63;;
39324;SDS011;25037;49.488;9.900;2024-03-23T02:51:17;15.32;;;7.32;;
39324;SDS011;25037;49.488;9.900;2024-03-23T02:53:42;13.00;;;8.07;;
39324;SDS011;25037;49.488;9.900;2024-03-23T02:56:08;16.00;;;7.85;;
39324;SDS011;25037;49.488;9.900;2024-03-23T02:58:34;14.05;;;7.55;;
39324;SDS011;25037;49.488;9.900;2024-03-23T03:01:00;14.00;;;6.88;;
39324;SDS011;25037;49.488;9.900;2024-03-23T03:03:25;12.90;;;7.47;;
39324;SDS011;25037;49.488;9.900;2024-03-23T03:05:55;12.73;;;6.90;;
39324;SDS011;25037;49.488;9.900;2024-03-23T03:08:21;13.85;;;7.47;;
39324;SDS011;25037;49.488;9.900;2024-03-23T03:10:47;13.20;;;7.32;;
39324;SDS011;25037;49.488;9.900;2024-03-23T03:13:13;10.82;;;6.07;;
39324;SDS011;25037;49.488;9.900;2024-03-23T03:15:45;11.75;;;7.13;;
39324;SDS011;25037;49.488;9.900;2024-03-23T03:18:11;12.38;;;7.63;;
39324;SDS011;25037;49.488;9.900;2024-03-23T03:20:40;14.63;;;7.32;;
39324;SDS011;25037;49.488;9.900;2024-03-23T03:23:08;12.02;;;7.03;;
39324;SDS011;25037;49.488;9.900;2024-03-23T03:25:35;12.93;;;7.15;;
39324;SDS011;25037;49.488;9.900;2024-03-23T03:28:00;14.80;;;7.47;;
39324;SDS011;25037;49.488;9.900;2024-03-23T03:30:27;11.68;;;6.57;;
39324;SDS011;25037;49.488;9.900;2024-03-23T03:32:53;14.73;;;6.90;;
39324;SDS011;25037;49.488;9.900;2024-03-23T03:37:45;13.20;;;7.10;;
39324;SDS011;25037;49.488;9.900;2024-03-23T03:40:11;12.07;;;7.25;;
39324;SDS011;25037;49.488;9.900;2024-03-23T03:42:37;13.63;;;7.25;;
39324;SDS011;25037;49.488;9.900;2024-03-23T03:45:03;14.80;;;7.28;;
39324;SDS011;25037;49.488;9.900;2024-03-23T03:47:30;14.18;;;7.93;;
39324;SDS011;25037;49.488;9.900;2024-03-23T03:49:56;11.85;;;6.72;;
39324;SDS011;25037;49.488;9.900;2024-03-23T03:52:21;16.30;;;7.63;;
39324;SDS011;25037;49.488;9.900;2024-03-23T03:54:47;13.50;;;7.60;;
39324;SDS011;25037;49.488;9.900;2024-03-23T03:57:13;12.80;;;7.28;;
39324;SDS011;25037;49.488;9.900;2024-03-23T03:59:39;13.48;;;7.53;;
39324;SDS011;25037;49.488;9.900;2024-03-23T04:02:04;14.68;;;8.20;;
39324;SDS011;25037;49.488;9.900;2024-03-23T04:04:30;11.77;;;7.35;;
39324;SDS011;25037;49.488;9.900;2024-03-23T04:06:59;11.10;;;6.63;;
39324;SDS011;25037;49.488;9.900;2024-03-23T04:09:25;13.13;;;7.00;;
39324;SDS011;25037;49.488;9.900;2024-03-23T04:11:51;13.52;;;6.55;;
39324;SDS011;25037;49.488;9.900;2024-03-23T04:14:17;11.93;;;6.63;;
39324;SDS011;25037;49.488;9.900;2024-03-23T04:16:43;12.95;;;6.50;;
39324;SDS011;25037;49.488;9.900;2024-03-23T04:19:09;11.48;;;5.95;;
39324;SDS011;25037;49.488;9.900;2024-03-23T04:21:35;7.95;;;4.43;;
39324;SDS011;25037;49.488;9.900;2024-03-23T04:24:02;8.50;;;4.70;;
39324;SDS011;25037;49.488;9.900;2024-03-23T04:26:40;8.95;;;3.78;;
39324;SDS011;25037;49.488;9.900;2024-03-23T04:29:08;6.55;;;3.65;;
39324;SDS011;25037;49.488;9.900;2024-03-23T04:31:34;9.25;;;3.80;;
39324;SDS011;25037;49.488;9.900;2024-03-23T04:34:00;8.38;;;3.50;;
39324;SDS011;25037;49.488;9.900;2024-03-23T04:36:26;9.85;;;3.65;;
39324;SDS011;25037;49.488;9.900;2024-03-23T04:38:52;6.40;;;3.60;;
39324;SDS011;25037;49.488;9.900;2024-03-23T04:41:18;7.53;;;3.70;;
39324;SDS011;25037;49.488;9.900;2024-03-23T04:43:44;6.75;;;3.55;;
39324;SDS011;25037;49.488;9.900;2024-03-23T04:46:10;10.25;;;3.95;;
39324;SDS011;25037;49.488;9.900;2024-03-23T04:48:36;10.93;;;4.40;;
39324;SDS011;25037;49.488;9.900;2024-03-23T04:51:01;8.02;;;4.22;;
39324;SDS011;25037;49.488;9.900;2024-03-23T04:53:27;7.30;;;4.10;;
39324;SDS011;25037;49.488;9.900;2024-03-23T04:55:56;10.13;;;3.95;;
39324;SDS011;25037;49.488;9.900;2024-03-23T04:58:24;8.40;;;4.07;;
39324;SDS011;25037;49.488;9.900;2024-03-23T05:00:54;8.10;;;4.00;;
39324;SDS011;25037;49.488;9.900;2024-03-23T05:03:21;10.43;;;5.15;;
39324;SDS011;25037;49.488;9.900;2024-03-23T05:05:50;8.55;;;4.40;;
39324;SDS011;25037;49.488;9.900;2024-03-23T05:08:16;8.73;;;4.43;;
39324;SDS011;25037;49.488;9.900;2024-03-23T05:10:42;10.70;;;4.97;;
39324;SDS011;25037;49.488;9.900;2024-03-23T05:13:08;12.25;;;5.57;;
39324;SDS011;25037;49.488;9.900;2024-03-23T05:15:34;9.35;;;5.00;;
39324;SDS011;25037;49.488;9.900;2024-03-23T05:18:00;9.32;;;4.85;;
39324;SDS011;25037;49.488;9.900;2024-03-23T05:20:26;9.05;;;4.68;;
39324;SDS011;25037;49.488;9.900;2024-03-23T05:22:52;11.10;;;5.82;;
39324;SDS011;25037;49.488;9.900;2024-03-23T05:25:21;12.35;;;4.57;;
39324;SDS011;25037;49.488;9.900;2024-03-23T05:27:48;12.25;;;5.28;;
39324;SDS011;25037;49.488;9.900;2024-03-23T05:30:14;12.95;;;5.68;;
39324;SDS011;25037;49.488;9.900;2024-03-23T05:32:39;12.95;;;5.53;;
39324;SDS011;25037;49.488;9.900;2024-03-23T05:35:07;14.65;;;5.55;;
39324;SDS011;25037;49.488;9.900;2024-03-23T05:37:34;9.85;;;5.20;;
39324;SDS011;25037;49.488;9.900;2024-03-23T05:40:00;12.40;;;5.38;;
39324;SDS011;25037;49.488;9.900;2024-03-23T05:42:26;11.60;;;5.40;;
39324;SDS011;25037;49.488;9.900;2024-03-23T05:44:52;13.20;;;5.45;;
39324;SDS011;25037;49.488;9.900;2024-03-23T05:47:18;12.45;;;6.65;;
39324;SDS011;25037;49.488;9.900;2024-03-23T05:49:43;12.32;;;5.57;;
39324;SDS011;25037;49.488;9.900;2024-03-23T05:52:11;13.65;;;6.38;;
39324;SDS011;25037;49.488;9.900;2024-03-23T05:54:38;11.45;;;5.35;;
39324;SDS011;25037;49.488;9.900;2024-03-23T05:57:04;11.63;;;5.75;;
39324;SDS011;25037;49.488;9.900;2024-03-23T05:59:32;11.55;;;5.90;;
39324;SDS011;25037;49.488;9.900;2024-03-23T06:01:58;11.50;;;5.55;;
39324;SDS011;25037;49.488;9.900;2024-03-23T06:04:24;10.45;;;5.40;;
39324;SDS011;25037;49.488;9.900;2024-03-23T06:06:51;9.35;;;5.20;;
39324;SDS011;25037;49.488;9.900;2024-03-23T06:09:20;12.88;;;5.25;;
39324;SDS011;25037;49.488;9.900;2024-03-23T06:11:45;12.00;;;5.97;;
39324;SDS011;25037;49.488;9.900;2024-03-23T06:14:11;10.25;;;4.75;;
39324;SDS011;25037;49.488;9.900;2024-03-23T06:16:37;11.43;;;5.07;;
39324;SDS011;25037;49.488;9.900;2024-03-23T06:19:03;11.65;;;4.68;;
39324;SDS011;25037;49.488;9.900;2024-03-23T06:21:32;8.23;;;4.60;;
39324;SDS011;25037;49.488;9.900;2024-03-23T06:23:58;9.75;;;4.43;;
39324;SDS011;25037;49.488;9.900;2024-03-23T06:26:24;8.88;;;4.35;;
39324;SDS011;25037;49.488;9.900;2024-03-23T06:28:50;9.60;;;4.72;;
39324;SDS011;25037;49.488;9.900;2024-03-23T06:31:15;8.15;;;4.28;;
39324;SDS011;25037;49.488;9.900;2024-03-23T06:33:41;9.80;;;4.50;;
39324;SDS011;25037;49.488;9.900;2024-03-23T06:36:08;10.60;;;4.88;;
39324;SDS011;25037;49.488;9.900;2024-03-23T06:38:36;8.63;;;4.20;;
39324;SDS011;25037;49.488;9.900;2024-03-23T06:41:03;8.77;;;2.80;;
39324;SDS011;25037;49.488;9.900;2024-03-23T06:43:33;9.40;;;4.53;;
39324;SDS011;25037;49.488;9.900;2024-03-23T06:45:59;8.73;;;4.25;;
39324;SDS011;25037;49.488;9.900;2024-03-23T06:48:25;9.55;;;4.40;;
39324;SDS011;25037;49.488;9.900;2024-03-23T06:50:55;11.60;;;4.85;;
39324;SDS011;25037;49.488;9.900;2024-03-23T06:53:22;8.32;;;3.97;;
39324;SDS011;25037;49.488;9.900;2024-03-23T06:55:51;9.77;;;4.38;;
39324;SDS011;25037;49.488;9.900;2024-03-23T06:58:22;9.30;;;3.97;;
39324;SDS011;25037;49.488;9.900;2024-03-23T07:00:49;9.45;;;3.97;;
39324;SDS011;25037;49.488;9.900;2024-03-23T07:03:15;8.98;;;4.22;;
39324;SDS011;25037;49.488;9.900;2024-03-23T07:05:42;9.75;;;3.72;;
39324;SDS011;25037;49.488;9.900;2024-03-23T07:08:08;10.60;;;4.20;;
39324;SDS011;25037;49.488;9.900;2024-03-23T07:10:34;9.60;;;3.92;;
39324;SDS011;25037;49.488;9.900;2024-03-23T07:13:00;7.65;;;3.33;;
39324;SDS011;25037;49.488;9.900;2024-03-23T07:15:26;4.65;;;2.28;;
39324;SDS011;25037;49.488;9.900;2024-03-23T07:17:52;4.93;;;1.85;;
39324;SDS011;25037;49.488;9.900;2024-03-23T07:20:18;5.95;;;2.20;;
39324;SDS011;25037;49.488;9.900;2024-03-23T07:22:45;3.33;;;1.65;;
39324;SDS011;25037;49.488;9.900;2024-03-23T07:25:12;3.25;;;1.60;;
39324;SDS011;25037;49.488;9.900;2024-03-23T07:27:38;3.85;;;1.30;;
39324;SDS011;25037;49.488;9.900;2024-03-23T07:30:04;3.25;;;1.52;;
39324;SDS011;25037;49.488;9.900;2024-03-23T07:32:31;2.65;;;1.15;;
39324;SDS011;25037;49.488;9.900;2024-03-23T07:34:57;2.13;;;0.88;;
39324;SDS011;25037;49.488;9.900;2024-03-23T07:37:22;2.75;;;1.20;;
39324;SDS011;25037;49.488;9.900;2024-03-23T07:39:48;2.72;;;1.20;;
39324;SDS011;25037;49.488;9.900;2024-03-23T07:42:14;2.75;;;1.08;;
39324;SDS011;25037;49.488;9.900;2024-03-23T07:44:40;3.05;;;1.20;;
39324;SDS011;25037;49.488;9.900;2024-03-23T07:47:06;3.25;;;1.65;;
39324;SDS011;25037;49.488;9.900;2024-03-23T07:49:32;4.05;;;1.73;;
39324;SDS011;25037;49.488;9.900;2024-03-23T07:51:58;2.70;;;1.35;;
39324;SDS011;25037;49.488;9.900;2024-03-23T07:54:23;3.05;;;1.52;;
39324;SDS011;25037;49.488;9.900;2024-03-23T07:56:49;3.22;;;1.65;;
39324;SDS011;25037;49.488;9.900;2024-03-23T07:59:15;3.33;;;1.63;;
39324;SDS011;25037;49.488;9.900;2024-03-23T08:01:41;2.88;;;1.52;;
39324;SDS011;25037;49.488;9.900;2024-03-23T08:04:06;3.75;;;1.70;;
39324;SDS011;25037;49.488;9.900;2024-03-23T08:06:32;3.20;;;1.35;;
39324;SDS011;25037;49.488;9.900;2024-03-23T08:08:58;3.28;;;1.73;;
39324;SDS011;25037;49.488;9.900;2024-03-23T08:11:27;3.17;;;1.63;;
39324;SDS011;25037;49.488;9.900;2024-03-23T08:16:20;2.28;;;1.15;;
39324;SDS011;25037;49.488;9.900;2024-03-23T08:18:46;2.72;;;1.52;;
39324;SDS011;25037;49.488;9.900;2024-03-23T08:21:12;2.00;;;1.10;;
39324;SDS011;25037;49.488;9.900;2024-03-23T08:23:38;2.83;;;1.30;;
39324;SDS011;25037;49.488;9.900;2024-03-23T08:26:07;2.70;;;1.20;;
39324;SDS011;25037;49.488;9.900;2024-03-23T08:28:37;2.38;;;1.23;;
39324;SDS011;25037;49.488;9.900;2024-03-23T08:31:04;2.03;;;1.00;;
39324;SDS011;25037;49.488;9.900;2024-03-23T08:33:33;2.42;;;1.00;;
39324;SDS011;25037;49.488;9.900;2024-03-23T08:36:01;2.08;;;1.08;;
39324;SDS011;25037;49.488;9.900;2024-03-23T08:38:29;2.30;;;0.93;;
39324;SDS011;25037;49.488;9.900;2024-03-23T08:40:58;1.60;;;0.80;;
39324;SDS011;25037;49.488;9.900;2024-03-23T08:43:28;1.73;;;0.77;;
39324;SDS011;25037;49.488;9.900;2024-03-23T08:46:04;1.60;;;0.75;;
39324;SDS011;25037;49.488;9.900;2024-03-23T08:48:36;1.58;;;0.60;;
39324;SDS011;25037;49.488;9.900;2024-03-23T08:51:08;1.27;;;0.60;;
39324;SDS011;25037;49.488;9.900;2024-03-23T08:53:35;1.42;;;0.55;;
39324;SDS011;25037;49.488;9.900;2024-03-23T08:56:02;1.60;;;0.80;;
39324;SDS011;25037;49.488;9.900;2024-03-23T08:58:30;2.90;;;0.90;;
39324;SDS011;25037;49.488;9.900;2024-03-23T09:00:57;1.33;;;0.55;;
39324;SDS011;25037;49.488;9.900;2024-03-23T09:03:33;1.63;;;0.60;;
39324;SDS011;25037;49.488;9.900;2024-03-23T09:06:00;0.63;;;0.30;;
39324;SDS011;25037;49.488;9.900;2024-03-23T09:08:31;2.00;;;0.50;;
39324;SDS011;25037;49.488;9.900;2024-03-23T09:10:57;1.85;;;0.43;;
39324;SDS011;25037;49.488;9.900;2024-03-23T09:13:22;1.52;;;0.65;;
39324;SDS011;25037;49.488;9.900;2024-03-23T09:15:49;0.85;;;0.35;;
39324;SDS011;25037;49.488;9.900;2024-03-23T09:18:16;1.65;;;0.50;;
39324;SDS011;25037;49.488;9.900;2024-03-23T09:20:42;1.15;;;0.50;;
39324;SDS011;25037;49.488;9.900;2024-03-23T09:23:08;2.17;;;0.52;;
39324;SDS011;25037;49.488;9.900;2024-03-23T09:25:39;2.20;;;0.75;;
39324;SDS011;25037;49.488;9.900;2024-03-23T09:28:05;1.58;;;0.43;;
39324;SDS011;25037;49.488;9.900;2024-03-23T09:30:34;1.73;;;0.63;;
39324;SDS011;25037;49.488;9.900;2024-03-23T09:33:00;1.38;;;0.65;;
39324;SDS011;25037;49.488;9.900;2024-03-23T09:35:26;2.78;;;1.42;;
39324;SDS011;25037;49.488;9.900;2024-03-23T09:37:52;2.35;;;0.73;;
39324;SDS011;25037;49.488;9.900;2024-03-23T09:40:18;2.17;;;0.65;;
39324;SDS011;25037;49.488;9.900;2024-03-23T09:42:43;2.53;;;0.95;;
39324;SDS011;25037;49.488;9.900;2024-03-23T09:45:23;2.95;;;0.80;;
39324;SDS011;25037;49.488;9.900;2024-03-23T09:47:52;2.08;;;1.00;;
39324;SDS011;25037;49.488;9.900;2024-03-23T09:50:18;2.55;;;1.10;;
39324;SDS011;25037;49.488;9.900;2024-03-23T09:52:47;2.85;;;0.82;;
39324;SDS011;25037;49.488;9.900;2024-03-23T09:55:13;2.30;;;0.93;;
39324;SDS011;25037;49.488;9.900;2024-03-23T09:57:42;2.20;;;0.85;;
39324;SDS011;25037;49.488;9.900;2024-03-23T10:00:08;3.97;;;1.02;;
39324;SDS011;25037;49.488;9.900;2024-03-23T10:02:35;1.90;;;0.85;;
39324;SDS011;25037;49.488;9.900;2024-03-23T10:05:01;1.88;;;0.85;;
39324;SDS011;25037;49.488;9.900;2024-03-23T10:07:27;2.25;;;0.80;;
39324;SDS011;25037;49.488;9.900;2024-03-23T10:12:20;1.90;;;0.80;;
39324;SDS011;25037;49.488;9.900;2024-03-23T10:14:46;3.28;;;1.10;;
39324;SDS011;25037;49.488;9.900;2024-03-23T10:22:14;5.00;;;1.85;;
39324;SDS011;25037;49.488;9.900;2024-03-23T10:24:44;7.20;;;1.27;;
39324;SDS011;25037;49.488;9.900;2024-03-23T10:27:14;6.57;;;1.38;;
39324;SDS011;25037;49.488;9.900;2024-03-23T10:29:45;8.52;;;1.30;;
39324;SDS011;25037;49.488;9.900;2024-03-23T10:32:12;4.75;;;1.45;;
39324;SDS011;25037;49.488;9.900;2024-03-23T10:34:39;5.47;;;1.55;;
39324;SDS011;25037;49.488;9.900;2024-03-23T10:37:06;7.13;;;1.50;;
39324;SDS011;25037;49.488;9.900;2024-03-23T10:39:36;5.22;;;1.40;;
39324;SDS011;25037;49.488;9.900;2024-03-23T10:42:06;3.88;;;1.20;;
39324;SDS011;25037;49.488;9.900;2024-03-23T10:44:34;6.32;;;1.73;;
39324;SDS011;25037;49.488;9.900;2024-03-23T10:47:00;4.47;;;1.50;;
39324;SDS011;25037;49.488;9.900;2024-03-23T10:49:27;5.63;;;1.23;;
39324;SDS011;25037;49.488;9.900;2024-03-23T10:52:01;7.32;;;2.00;;
39324;SDS011;25037;49.488;9.900;2024-03-23T10:57:02;3.72;;;1.20;;
39324;SDS011;25037;49.488;9.900;2024-03-23T10:59:31;3.92;;;1.33;;
39324;SDS011;25037;49.488;9.900;2024-03-23T11:01:59;3.67;;;1.98;;
39324;SDS011;25037;49.488;9.900;2024-03-23T11:04:32;4.18;;;1.45;;
39324;SDS011;25037;49.488;9.900;2024-03-23T11:09:49;6.07;;;1.30;;
39324;SDS011;25037;49.488;9.900;2024-03-23T11:12:24;6.95;;;1.30;;
39324;SDS011;25037;49.488;9.900;2024-03-23T11:15:34;5.57;;;1.30;;
39324;SDS011;25037;49.488;9.900;2024-03-23T11:17:40;3.10;;;1.05;;
39324;SDS011;25037;49.488;9.900;2024-03-23T11:20:06;4.93;;;1.42;;
39324;SDS011;25037;49.488;9.900;2024-03-23T11:25:12;4.22;;;1.40;;
39324;SDS011;25037;49.488;9.900;2024-03-23T11:27:46;5.07;;;1.27;;
39324;SDS011;25037;49.488;9.900;2024-03-23T11:30:22;4.20;;;1.55;;
39324;SDS011;25037;49.488;9.900;2024-03-23T11:32:49;6.68;;;1.60;;
39324;SDS011;25037;49.488;9.900;2024-03-23T11:35:28;4.72;;;1.48;;
39324;SDS011;25037;49.488;9.900;2024-03-23T11:40:34;7.35;;;1.92;;
39324;SDS011;25037;49.488;9.900;2024-03-23T11:43:02;6.10;;;1.90;;
39324;SDS011;25037;49.488;9.900;2024-03-23T11:45:33;4.28;;;1.63;;
39324;SDS011;25037;49.488;9.900;2024-03-23T11:50:34;5.07;;;1.30;;
39324;SDS011;25037;49.488;9.900;2024-03-23T11:53:08;6.78;;;1.63;;
39324;SDS011;25037;49.488;9.900;2024-03-23T11:58:15;4.80;;;1.23;;
39324;SDS011;25037;49.488;9.900;2024-03-23T12:00:51;5.60;;;1.52;;
39324;SDS011;25037;49.488;9.900;2024-03-23T12:03:18;7.10;;;1.65;;
39324;SDS011;25037;49.488;9.900;2024-03-23T12:05:47;7.10;;;1.25;;
39324;SDS011;25037;49.488;9.900;2024-03-23T12:08:15;4.00;;;1.13;;
39324;SDS011;25037;49.488;9.900;2024-03-23T12:10:43;5.68;;;1.95;;
39324;SDS011;25037;49.488;9.900;2024-03-23T12:13:10;4.18;;;1.17;;
39324;SDS011;25037;49.488;9.900;2024-03-23T12:15:36;5.70;;;1.52;;
39324;SDS011;25037;49.488;9.900;2024-03-23T12:18:08;6.05;;;2.20;;
39324;SDS011;25037;49.488;9.900;2024-03-23T12:20:35;2.90;;;1.02;;
39324;SDS011;25037;49.488;9.900;2024-03-23T12:23:06;7.93;;;1.73;;
39324;SDS011;25037;49.488;9.900;2024-03-23T12:25:32;5.57;;;1.40;;
39324;SDS011;25037;49.488;9.900;2024-03-23T12:28:00;5.60;;;1.20;;
39324;SDS011;25037;49.488;9.900;2024-03-23T12:30:26;4.10;;;1.45;;
39324;SDS011;25037;49.488;9.900;2024-03-23T12:32:52;5.53;;;1.20;;
39324;SDS011;25037;49.488;9.900;2024-03-23T12:35:18;5.45;;;1.20;;
39324;SDS011;25037;49.488;9.900;2024-03-23T12:37:43;4.38;;;1.23;;
39324;SDS011;25037;49.488;9.900;2024-03-23T12:40:09;4.47;;;1.20;;
39324;SDS011;25037;49.488;9.900;2024-03-23T12:42:35;3.95;;;1.42;;
39324;SDS011;25037;49.488;9.900;2024-03-23T12:45:01;5.03;;;1.52;;
39324;SDS011;25037;49.488;9.900;2024-03-23T12:47:28;4.85;;;1.20;;
39324;SDS011;25037;49.488;9.900;2024-03-23T12:49:55;4.07;;;1.30;;
39324;SDS011;25037;49.488;9.900;2024-03-23T12:52:21;3.72;;;1.35;;
39324;SDS011;25037;49.488;9.900;2024-03-23T12:54:49;6.20;;;1.58;;
39324;SDS011;25037;49.488;9.900;2024-03-23T12:57:15;5.82;;;1.27;;
39324;SDS011;25037;49.488;9.900;2024-03-23T12:59:40;3.90;;;0.93;;
39324;SDS011;25037;49.488;9.900;2024-03-23T13:02:06;5.88;;;1.20;;
39324;SDS011;25037;49.488;9.900;2024-03-23T13:04:32;3.45;;;1.27;;
39324;SDS011;25037;49.488;9.900;2024-03-23T13:06:58;4.43;;;1.40;;
39324;SDS011;25037;49.488;9.900;2024-03-23T13:09:24;7.15;;;1.00;;
39324;SDS011;25037;49.488;9.900;2024-03-23T13:11:49;5.25;;;1.25;;
39324;SDS011;25037;49.488;9.900;2024-03-23T13:14:15;7.18;;;1.42;;
39324;SDS011;25037;49.488;9.900;2024-03-23T13:16:42;7.95;;;1.63;;
39324;SDS011;25037;49.488;9.900;2024-03-23T13:19:07;5.18;;;1.33;;
39324;SDS011;25037;49.488;9.900;2024-03-23T13:21:33;4.57;;;1.30;;
39324;SDS011;25037;49.488;9.900;2024-03-23T13:23:59;5.85;;;1.20;;
39324;SDS011;25037;49.488;9.900;2024-03-23T13:26:24;4.32;;;1.33;;
39324;SDS011;25037;49.488;9.900;2024-03-23T13:28:50;5.63;;;1.50;;
39324;SDS011;25037;49.488;9.900;2024-03-23T13:31:16;7.07;;;1.60;;
39324;SDS011;25037;49.488;9.900;2024-03-23T13:33:42;2.95;;;1.10;;
39324;SDS011;25037;49.488;9.900;2024-03-23T13:36:09;4.90;;;1.40;;
39324;SDS011;25037;49.488;9.900;2024-03-23T13:38:35;9.75;;;1.58;;
39324;SDS011;25037;49.488;9.900;2024-03-23T13:41:00;8.18;;;2.03;;
39324;SDS011;25037;49.488;9.900;2024-03-23T13:43:27;5.32;;;1.48;;
39324;SDS011;25037;49.488;9.900;2024-03-23T13:45:56;4.90;;;1.50;;
39324;SDS011;25037;49.488;9.900;2024-03-23T13:48:23;4.72;;;1.30;;
39324;SDS011;25037;49.488;9.900;2024-03-23T13:50:56;5.45;;;1.58;;
39324;SDS011;25037;49.488;9.900;2024-03-23T13:53:23;5.10;;;1.40;;
39324;SDS011;25037;49.488;9.900;2024-03-23T13:55:49;4.47;;;1.40;;
39324;SDS011;25037;49.488;9.900;2024-03-23T13:58:15;6.20;;;1.55;;
39324;SDS011;25037;49.488;9.900;2024-03-23T14:00:41;6.15;;;2.20;;
39324;SDS011;25037;49.488;9.900;2024-03-23T14:03:10;7.35;;;1.30;;
39324;SDS011;25037;49.488;9.900;2024-03-23T14:05:37;4.85;;;1.05;;
39324;SDS011;25037;49.488;9.900;2024-03-23T14:08:07;2.55;;;1.05;;
39324;SDS011;25037;49.488;9.900;2024-03-23T14:10:33;3.45;;;1.15;;
39324;SDS011;25037;49.488;9.900;2024-03-23T14:12:59;2.38;;;0.73;;
39324;SDS011;25037;49.488;9.900;2024-03-23T14:15:28;3.05;;;0.55;;
39324;SDS011;25037;49.488;9.900;2024-03-23T14:17:55;2.05;;;0.68;;
39324;SDS011;25037;49.488;9.900;2024-03-23T14:20:21;3.78;;;0.60;;
39324;SDS011;25037;49.488;9.900;2024-03-23T14:22:50;3.58;;;1.00;;
39324;SDS011;25037;49.488;9.900;2024-03-23T14:25:16;2.33;;;0.43;;
39324;SDS011;25037;49.488;9.900;2024-03-23T14:27:45;1.65;;;0.60;;
39324;SDS011;25037;49.488;9.900;2024-03-23T14:30:11;2.80;;;0.70;;
39324;SDS011;25037;49.488;9.900;2024-03-23T14:32:38;3.13;;;1.00;;
39324;SDS011;25037;49.488;9.900;2024-03-23T14:35:04;2.88;;;0.60;;
39324;SDS011;25037;49.488;9.900;2024-03-23T14:37:32;1.75;;;0.50;;
39324;SDS011;25037;49.488;9.900;2024-03-23T14:39:58;2.67;;;0.80;;
39324;SDS011;25037;49.488;9.900;2024-03-23T14:42:24;3.40;;;1.15;;
39324;SDS011;25037;49.488;9.900;2024-03-23T14:44:50;3.00;;;0.80;;
39324;SDS011;25037;49.488;9.900;2024-03-23T14:47:17;2.53;;;0.77;;
39324;SDS011;25037;49.488;9.900;2024-03-23T14:49:43;2.35;;;0.70;;
39324;SDS011;25037;49.488;9.900;2024-03-23T14:52:21;2.38;;;0.77;;
39324;SDS011;25037;49.488;9.900;2024-03-23T14:54:47;2.85;;;0.68;;
39324;SDS011;25037;49.488;9.900;2024-03-23T14:57:12;3.85;;;0.80;;
39324;SDS011;25037;49.488;9.900;2024-03-23T14:59:38;5.60;;;1.27;;
39324;SDS011;25037;49.488;9.900;2024-03-23T15:02:04;2.38;;;0.65;;
39324;SDS011;25037;49.488;9.900;2024-03-23T15:04:31;3.53;;;0.70;;
39324;SDS011;25037;49.488;9.900;2024-03-23T15:06:56;5.03;;;0.60;;
39324;SDS011;25037;49.488;9.900;2024-03-23T15:09:22;2.00;;;0.50;;
39324;SDS011;25037;49.488;9.900;2024-03-23T15:11:48;2.65;;;1.10;;
39324;SDS011;25037;49.488;9.900;2024-03-23T15:14:13;3.67;;;0.75;;
39324;SDS011;25037;49.488;9.900;2024-03-23T15:16:39;3.47;;;0.63;;
39324;SDS011;25037;49.488;9.900;2024-03-23T15:19:07;1.38;;;0.50;;
39324;SDS011;25037;49.488;9.900;2024-03-23T15:21:34;2.38;;;0.55;;
39324;SDS011;25037;49.488;9.900;2024-03-23T15:23:59;1.40;;;0.50;;
39324;SDS011;25037;49.488;9.900;2024-03-23T15:26:25;1.73;;;0.43;;
39324;SDS011;25037;49.488;9.900;2024-03-23T15:28:51;2.13;;;0.68;;
39324;SDS011;25037;49.488;9.900;2024-03-23T15:31:23;1.48;;;0.50;;
39324;SDS011;25037;49.488;9.900;2024-03-23T15:33:49;2.10;;;0.70;;
39324;SDS011;25037;49.488;9.900;2024-03-23T15:36:15;3.40;;;0.60;;
39324;SDS011;25037;49.488;9.900;2024-03-23T15:38:41;2.85;;;0.43;;
39324;SDS011;25037;49.488;9.900;2024-03-23T15:41:08;2.90;;;0.65;;
39324;SDS011;25037;49.488;9.900;2024-03-23T15:43:34;1.90;;;0.65;;
39324;SDS011;25037;49.488;9.900;2024-03-23T15:46:04;1.92;;;0.32;;
39324;SDS011;25037;49.488;9.900;2024-03-23T15:48:31;2.83;;;0.43;;
39324;SDS011;25037;49.488;9.900;2024-03-23T15:50:58;1.25;;;0.52;;
39324;SDS011;25037;49.488;9.900;2024-03-23T15:53:26;1.35;;;0.70;;
39324;SDS011;25037;49.488;9.900;2024-03-23T15:55:55;2.13;;;0.40;;
39324;SDS011;25037;49.488;9.900;2024-03-23T15:58:22;0.95;;;0.40;;
39324;SDS011;25037;49.488;9.900;2024-03-23T16:00:58;2.08;;;0.43;;
39324;SDS011;25037;49.488;9.900;2024-03-23T16:03:25;2.00;;;0.60;;